Aeroporto :







RITROVATECI SU...

 
LOGIN :

Iscrizione | Disclaimer

   EN    FR    IT 

 









Sommario :    VFR   VFR Marginale   IFR   IFR Intensivo   IFR Molto Intensivo
Visibilità : 
Base nubi : 
>= 8 km
>= 3000ft
5 / 8 km
1000 / 3000 ft
1500m / 5 km
500 / 1000 ft
800 / 1500m
200 / 500 ft
< 800m
< 200 ft
Simboli :   Temporali  Nebbia  Neve Forte  Precipitazioni Forti  Vento > 20 kt






- Altitudine del aeroporto : 522 ft
- Codice IATA : YBG


CYBG - CFB Bagotville

ULTIMO METAR :
  • 070125Z 28009KT 5SM -SHSN FEW015 SCT024 OVC075 M08/M10 A2999 RMK SC2SC2AC4 VIS VRB 3-7 MOON DIMLY VISBL SLP167

METARs OBSOLETI :
  • 070100Z 28007KT 8SM -SHSN FEW021 BKN060 OVC080 M09/M10 A2998 RMK SC2SC3AS2 MOON DIMLY VISBL SLP165
  • 070000Z 28007KT 10SM -SHSN FEW022 BKN055 OVC080 M09/M10 A2996 RMK SC2SC3AS2 PCPN VRY LGT MOON DIMLY VISBL SLP159
  • 062300Z 27007KT 10SM -SHSN FEW012 FEW023 SCT040 BKN080 M08/M10 A2995 RMK CF1SC2SC2AS2 PCPN VRY LGT SLP153

TAF TAF CYBG
Valido dal 07 a 00 ore il 08 a 00 ore UTC


062330Z 0700/0724 27005KT P6SM SCT025 BKN040
TEMPO 0700/0706 5SM -SHSN BKN020 OVC040
FM070600 29008KT P6SM FEW015 BKN030
FM071800 29008KT 5SM -SHSN BKN025 RMK NXT FCST BY 070600Z



MetMap, La meteo Aeronautica in un colpo d'occhio ! - Copyright ORBIFLY Dicembre 2007 - Disclaimer

ORBIFLY MET'MAP TEAM :

Programmazione e sviluppo : Alexandra Zaïnal
Concezione : Baudouin d'Aumeries
Aiuto per la programmazione : Marc-Olivier Méhu
Supporto tecnico e logistico : Manuel Goepfert
Aiuto per la traduzione : Arnaldo La Scala

Contatto : metmap@orbifly.com




FONTI E CREDITI :

   NOAA